Aviation Digital Data Service (ADDS)

Output produced by METARs form (0506 UTC 21 January 2019)
found at http://www.aviationweather.gov/metar/data/
 
Forecast for: KLAN (LANSING , MI, US)
Text: KLAN 202340Z 2100/2124 34013KT P6SM SKC
Forecast period: 0000 to 1500 UTC 21 January 2019
Forecast type: FROM: standard forecast or significant change
Winds: from the NNW (340 degrees) at 15 MPH (13 knots; 6.7 m/s)
Visibility: 6 or more miles 10+ km)
Clouds: clear skies
Weather: no significant weather forecast for this period
Text: FM211500 VRB04KT P6SM SKC
Forecast period: 1500 UTC 21 January 2019 to 0000 UTC 22 January 2019
Forecast type: FROM: standard forecast or significant change
Winds: variable direction winds at 5 MPH (4 knots; 2.1 m/s)
Visibility: 6 or more miles 10+ km)
Clouds: clear skies
Weather: no significant weather forecast for this period